Terminal Aerodrome Forecast
Issued by NWS

Home | Current Version | Previous Version | Text Only | Print | Product List | Glossary On
Versions: 1 2 3 4 5 6 7 8 9 10 11 12 13 14 15 16 17 18 19 20 21 22 23 24 25 26 27 28 29 30 31 32 33 34 35 36 37 38
000
FTUS45 KBOI 172344
TAFMYL
TAF
KMYL 172344Z 1800/1824 VRB03KT P6SM OVC070
     FM180600 VRB03KT P6SM VCSH SCT040 OVC070
     FM181200 VRB03KT 3SM -SN BR BKN015 OVC030
     FM181900 VRB03KT P6SM VCSH BKN030 OVC090=

USA.gov is the U.S. government's official web portal to all federal, state and local government web resources and services.